Airfield :
LOGIN :

Register | Disclaimer

   EN    FR    IT 

 










Legend :    VFR   Marginal VFR   IFR   Intensive IFR   Very Intensive IFR
Visi :
Ceiling :
>= 8 km
>= 3000ft
5 to 8 km
1000 to 3000 ft
1500m to 5 km
500 to 1000 ft
800 to 1500m
200 to 500 ft
< 800m
< 200 ft
Symbols :   Thunderstorms  Fog  Heavy snow  Heavy precipitations  Wind > 20 kt
SIGMETs :     Misc.  Thunderstorms  Icing  Turbulence  Mountain Waves  Volcanic Ashes







- Airport Elevation : 935 ft


EBFS - Florennes

CURRENT METAR :
  • 221855Z AUTO 35008KT 9999 BKN041/// 13/06 Q1028 BLU

EXPIRED METARs :
  • 221825Z AUTO 35008KT 9999 OVC043/// 13/06 Q1028 BLU
  • 221755Z AUTO 34008KT 9999 FEW040/// SCT046/// 14/05 Q1028 BLU
  • 221725Z AUTO 35008KT 9999 FEW040/// SCT046/// 15/05 Q1028 BLU
  • 221655Z AUTO 34010KT 9999 FEW042/// 14/06 Q1028 BLU
  • 221625Z AUTO 35010KT 9999 FEW037/// 14/05 Q1028 BLU
  • 221555Z AUTO 36012KT 9999 FEW039/// BKN045/// 16/06 Q1028 BLU

TAF TAF EBFS
Valid from the 22 at 19:00 until the 23 at 07:00 UTC


221541Z 2219/2307 34010KT 9999 SCT025
No reported NOTAMs for that airfield.



MET'MAP, your aeronautical weather chart ! - Copyright ORBIFLY December 2007 - Disclaimer

ORBIFLY MET'MAP TEAM :

Programming & Development : Alexandra Zaïnal
Concept & Development : Baudouin d'Aumeries
Co-Development & Prog : Marc-Olivier Méhu
Technical & hardware support : Manuel Goepfert

Contact : metmap@orbifly.com




SOURCES & CREDITS :

   NOAA